createdAt,value
2023-02-06T00:00:51.168Z,8.55
2023-02-06T00:03:18.284Z,8.35
2023-02-06T00:05:53.264Z,8.63
2023-02-06T00:08:20.241Z,8.30
2023-02-06T00:10:46.970Z,8.98
2023-02-06T00:13:13.704Z,7.82
2023-02-06T00:15:40.480Z,8.60
2023-02-06T00:18:07.213Z,8.48
2023-02-06T00:20:34.000Z,9.23
2023-02-06T00:23:00.725Z,9.00
2023-02-06T00:25:27.415Z,8.65
2023-02-06T00:27:54.196Z,9.30
2023-02-06T00:30:21.038Z,8.63
2023-02-06T00:32:47.897Z,9.15
2023-02-06T00:35:14.705Z,8.45
2023-02-06T00:37:41.501Z,9.93
2023-02-06T00:40:08.909Z,8.85
2023-02-06T00:42:35.616Z,8.90
2023-02-06T00:45:02.357Z,8.85
2023-02-06T00:47:30.308Z,8.05
2023-02-06T00:49:57.020Z,7.78
2023-02-06T00:52:23.756Z,8.48
2023-02-06T00:54:50.848Z,8.40
2023-02-06T00:57:17.669Z,8.25
2023-02-06T00:59:44.613Z,7.95
2023-02-06T01:02:11.466Z,8.38
2023-02-06T01:04:38.513Z,8.23
2023-02-06T01:07:06.539Z,7.30
2023-02-06T01:09:33.263Z,8.02
2023-02-06T01:12:00.047Z,8.88
2023-02-06T01:14:26.933Z,7.78
2023-02-06T01:16:53.732Z,8.57
2023-02-06T01:19:20.502Z,9.05
2023-02-06T01:21:47.306Z,8.35
2023-02-06T01:24:16.205Z,8.98
2023-02-06T01:26:43.944Z,8.10
2023-02-06T01:29:10.709Z,9.10
2023-02-06T01:31:37.502Z,9.15
2023-02-06T01:34:04.305Z,8.18
2023-02-06T01:36:31.096Z,8.45
2023-02-06T01:38:57.898Z,8.35
2023-02-06T01:41:24.898Z,9.10
2023-02-06T01:44:22.049Z,9.13
2023-02-06T01:46:53.573Z,9.73
2023-02-06T01:49:25.644Z,9.10
2023-02-06T01:52:04.740Z,9.30
2023-02-06T01:54:31.983Z,8.93
2023-02-06T01:57:02.495Z,9.55
2023-02-06T01:59:29.406Z,8.60
2023-02-06T02:01:56.695Z,9.70
2023-02-06T02:04:25.809Z,9.50
2023-02-06T02:07:21.519Z,9.20
2023-02-06T02:09:48.353Z,9.50
2023-02-06T02:12:15.398Z,8.30
2023-02-06T02:14:44.456Z,8.98
2023-02-06T02:17:26.623Z,9.30
2023-02-06T02:20:11.391Z,9.15
2023-02-06T02:22:53.139Z,7.97
2023-02-06T02:25:50.945Z,8.68
2023-02-06T02:28:39.738Z,8.57
2023-02-06T02:31:18.823Z,7.60
2023-02-06T02:33:56.172Z,8.20
2023-02-06T02:37:03.804Z,9.32
2023-02-06T02:40:01.798Z,8.10
2023-02-06T02:42:50.512Z,8.80
2023-02-06T02:45:42.665Z,8.55
2023-02-06T02:48:17.198Z,8.52
2023-02-06T02:50:44.405Z,8.93
2023-02-06T02:53:12.900Z,9.02
2023-02-06T02:55:39.713Z,9.10
2023-02-06T02:58:12.193Z,9.75
2023-02-06T03:00:55.552Z,8.75
2023-02-06T03:06:20.199Z,9.15
2023-02-06T03:09:10.340Z,9.25
2023-02-06T03:11:43.385Z,9.43
2023-02-06T03:14:21.458Z,10.02
2023-02-06T03:16:57.139Z,9.85
2023-02-06T03:19:40.336Z,10.05
2023-02-06T03:22:07.237Z,9.68
2023-02-06T03:24:39.140Z,9.45
2023-02-06T03:27:11.382Z,9.43
2023-02-06T03:29:40.659Z,10.13
2023-02-06T03:32:29.851Z,10.90
2023-02-06T03:35:08.035Z,10.18
2023-02-06T03:37:37.176Z,10.23
2023-02-06T03:40:06.078Z,10.68
2023-02-06T03:42:39.130Z,9.55
2023-02-06T03:45:17.217Z,10.82
2023-02-06T03:47:46.243Z,9.95
2023-02-06T03:50:14.027Z,10.65
2023-02-06T03:52:46.936Z,10.30
2023-02-06T03:55:18.105Z,10.18
2023-02-06T03:57:49.061Z,10.07
2023-02-06T04:00:16.296Z,10.38
2023-02-06T04:02:44.633Z,10.80
2023-02-06T04:05:11.390Z,9.82
2023-02-06T04:07:38.276Z,10.43
2023-02-06T04:10:05.334Z,9.68
2023-02-06T04:12:32.222Z,9.45
2023-02-06T04:14:58.991Z,10.73
2023-02-06T04:17:40.983Z,10.82
2023-02-06T04:20:12.980Z,11.25
2023-02-06T04:22:40.965Z,9.60
2023-02-06T04:25:08.380Z,10.88
2023-02-06T04:27:35.254Z,10.90
2023-02-06T04:30:02.063Z,10.70
2023-02-06T04:32:29.907Z,9.93
2023-02-06T04:34:56.756Z,9.60
2023-02-06T04:37:23.523Z,10.73
2023-02-06T04:39:50.372Z,10.10
2023-02-06T04:42:17.166Z,10.30
2023-02-06T04:44:45.366Z,9.77
2023-02-06T04:47:12.426Z,10.35
2023-02-06T04:49:39.184Z,10.80
2023-02-06T04:52:06.089Z,10.70
2023-02-06T04:54:34.011Z,11.65
2023-02-06T04:57:00.759Z,11.30
2023-02-06T04:59:27.646Z,11.23
2023-02-06T05:01:54.450Z,11.98
2023-02-06T05:04:21.196Z,10.73
2023-02-06T05:06:48.825Z,11.32
2023-02-06T05:09:16.398Z,11.15
2023-02-06T05:11:43.130Z,10.43
2023-02-06T05:14:09.834Z,10.90
2023-02-06T05:16:36.545Z,10.90
2023-02-06T05:19:03.297Z,9.43
2023-02-06T05:21:30.097Z,10.63
2023-02-06T05:23:56.873Z,9.55
2023-02-06T05:26:23.693Z,9.82
2023-02-06T05:28:50.658Z,10.45
2023-02-06T05:31:20.430Z,10.20
2023-02-06T05:33:51.858Z,10.60
2023-02-06T05:36:19.984Z,9.32
2023-02-06T05:38:47.182Z,10.32
2023-02-06T05:41:14.310Z,10.05
2023-02-06T05:43:41.275Z,11.25
2023-02-06T05:46:08.239Z,10.30
2023-02-06T05:48:35.269Z,10.20
2023-02-06T05:51:02.627Z,9.52
2023-02-06T05:53:29.607Z,10.50
2023-02-06T05:55:57.084Z,9.10
2023-02-06T05:58:24.205Z,10.50
2023-02-06T06:00:51.021Z,10.55
2023-02-06T06:03:17.908Z,10.70
2023-02-06T06:05:45.235Z,9.43
2023-02-06T06:08:11.941Z,9.27
2023-02-06T06:10:38.761Z,9.40
2023-02-06T06:13:05.503Z,9.27
2023-02-06T06:15:32.283Z,9.70
2023-02-06T06:17:59.041Z,9.73
2023-02-06T06:20:25.850Z,9.40
2023-02-06T06:22:52.569Z,8.75
2023-02-06T06:25:19.395Z,9.60
2023-02-06T06:27:46.505Z,9.73
2023-02-06T06:30:13.743Z,10.40
2023-02-06T06:32:40.582Z,8.85
2023-02-06T06:35:07.589Z,9.57
2023-02-06T06:37:34.388Z,9.07
2023-02-06T06:40:01.154Z,10.20
2023-02-06T06:42:28.769Z,9.93
2023-02-06T06:44:55.588Z,9.23
2023-02-06T06:47:22.438Z,8.88
2023-02-06T06:49:49.135Z,9.77
2023-02-06T06:52:24.434Z,10.55
2023-02-06T06:54:53.070Z,9.88
2023-02-06T06:57:20.807Z,10.38
2023-02-06T06:59:47.609Z,10.10
2023-02-06T07:02:14.754Z,9.70
2023-02-06T07:04:41.727Z,9.38
2023-02-06T07:07:08.713Z,10.90
2023-02-06T07:09:35.654Z,9.90
2023-02-06T07:12:02.521Z,10.25
2023-02-06T07:14:29.272Z,9.80
2023-02-06T07:16:56.483Z,10.32
2023-02-06T07:19:23.463Z,10.50
2023-02-06T07:21:50.234Z,11.15
2023-02-06T07:24:17.054Z,11.07
2023-02-06T07:26:44.726Z,10.02
2023-02-06T07:29:11.540Z,9.82
2023-02-06T07:31:38.387Z,10.85
2023-02-06T07:34:05.258Z,11.75
2023-02-06T07:36:32.046Z,11.05
2023-02-06T07:38:58.771Z,10.27
2023-02-06T07:41:25.526Z,10.40
2023-02-06T07:43:54.261Z,10.48
2023-02-06T07:46:21.365Z,10.70
2023-02-06T07:48:48.221Z,10.73
2023-02-06T07:51:15.092Z,10.55
2023-02-06T07:53:41.947Z,9.82
2023-02-06T07:56:14.260Z,9.40
2023-02-06T07:58:41.411Z,10.48
2023-02-06T08:01:08.903Z,10.50
2023-02-06T08:03:36.562Z,9.88
2023-02-06T08:06:09.769Z,10.15
2023-02-06T08:08:36.559Z,10.00
2023-02-06T08:11:11.869Z,10.10
2023-02-06T08:13:39.001Z,11.65
2023-02-06T08:16:08.063Z,11.20
2023-02-06T08:18:35.107Z,9.93
2023-02-06T08:21:10.483Z,10.75
2023-02-06T08:23:37.589Z,9.90
2023-02-06T08:26:11.062Z,12.45
2023-02-06T08:31:35.916Z,11.77
2023-02-06T08:34:03.433Z,12.32
2023-02-06T08:36:32.187Z,10.73
2023-02-06T08:39:00.103Z,11.63
2023-02-06T08:41:30.096Z,11.10
2023-02-06T08:43:59.576Z,12.32
2023-02-06T08:46:28.947Z,11.32
2023-02-06T08:48:57.949Z,13.35
2023-02-06T08:51:27.979Z,12.55
2023-02-06T08:54:03.319Z,12.40
2023-02-06T08:56:31.664Z,12.95
2023-02-06T08:58:59.864Z,12.13
2023-02-06T09:01:28.755Z,12.05
2023-02-06T09:03:57.509Z,12.48
2023-02-06T09:06:25.619Z,13.38
2023-02-06T09:08:53.439Z,12.70
2023-02-06T09:11:22.332Z,11.68
2023-02-06T09:13:50.137Z,13.15
2023-02-06T09:16:19.315Z,12.95
2023-02-06T09:18:46.500Z,13.73
2023-02-06T09:21:19.304Z,12.85
2023-02-06T09:23:48.332Z,13.32
2023-02-06T09:26:17.863Z,13.65
2023-02-06T09:28:44.928Z,12.07
2023-02-06T09:31:12.404Z,13.52
2023-02-06T09:33:40.409Z,12.25
2023-02-06T09:36:16.024Z,11.38
2023-02-06T09:38:45.598Z,12.40
2023-02-06T09:41:16.523Z,12.40
2023-02-06T09:43:52.770Z,11.60
2023-02-06T09:46:26.979Z,11.38
2023-02-06T09:48:56.362Z,10.88
2023-02-06T09:51:41.019Z,11.10
2023-02-06T09:54:55.765Z,10.68
2023-02-06T09:57:29.315Z,11.35
2023-02-06T10:00:19.781Z,10.32
2023-02-06T10:03:23.664Z,11.15
2023-02-06T10:06:11.797Z,10.13
2023-02-06T10:08:54.298Z,9.82
2023-02-06T10:11:51.774Z,8.57
2023-02-06T10:14:44.683Z,10.68
2023-02-06T10:17:24.984Z,9.40
2023-02-06T10:20:13.977Z,8.60
2023-02-06T10:22:54.492Z,9.43
2023-02-06T10:25:35.219Z,9.93
2023-02-06T10:28:24.734Z,9.27
2023-02-06T10:31:00.736Z,9.45
2023-02-06T10:33:51.590Z,10.13
2023-02-06T10:36:55.176Z,9.63
2023-02-06T10:39:30.798Z,9.73
2023-02-06T10:42:18.252Z,9.20
2023-02-06T10:44:51.686Z,11.07
2023-02-06T10:47:51.608Z,9.27
2023-02-06T10:50:33.088Z,9.10
2023-02-06T10:53:05.184Z,9.20
2023-02-06T10:55:48.130Z,9.20
2023-02-06T10:58:39.996Z,9.30
2023-02-06T11:01:24.733Z,9.63
2023-02-06T11:04:12.354Z,8.77
2023-02-06T11:06:41.598Z,9.40
2023-02-06T11:09:11.154Z,9.45
2023-02-06T11:11:40.614Z,8.85
2023-02-06T11:14:27.935Z,10.68
2023-02-06T11:16:57.856Z,9.73
2023-02-06T11:19:44.514Z,9.70
2023-02-06T11:22:15.787Z,9.27
2023-02-06T11:25:05.880Z,9.05
2023-02-06T11:27:34.835Z,8.52
2023-02-06T11:30:21.203Z,8.85
2023-02-06T11:33:02.668Z,9.18
2023-02-06T11:35:48.225Z,9.25
2023-02-06T11:38:28.054Z,10.52
2023-02-06T11:41:02.729Z,10.10
2023-02-06T11:43:41.320Z,10.50
2023-02-06T11:46:16.038Z,11.45
2023-02-06T11:48:47.597Z,10.30
2023-02-06T11:51:17.069Z,10.18
2023-02-06T11:54:02.117Z,10.60
2023-02-06T11:56:30.535Z,10.82
2023-02-06T11:59:23.236Z,10.80
2023-02-06T12:01:50.613Z,8.98
2023-02-06T12:04:24.006Z,10.52
2023-02-06T12:07:16.569Z,11.52
2023-02-06T12:09:43.501Z,10.57
2023-02-06T12:12:19.226Z,9.77
2023-02-06T12:14:57.622Z,9.68
2023-02-06T12:17:31.118Z,8.25
2023-02-06T12:20:12.646Z,8.90
2023-02-06T12:22:51.931Z,9.18
2023-02-06T12:25:36.166Z,9.00
2023-02-06T12:28:31.217Z,8.73
2023-02-06T12:31:35.173Z,7.80
2023-02-06T12:34:18.549Z,9.25
2023-02-06T12:37:00.490Z,8.55
2023-02-06T12:39:32.201Z,7.75
2023-02-06T12:42:17.435Z,8.52
2023-02-06T12:44:53.174Z,8.85
2023-02-06T12:47:34.829Z,8.80
2023-02-06T12:50:16.542Z,10.77
2023-02-06T12:52:50.265Z,10.25
2023-02-06T12:55:24.163Z,10.68
2023-02-06T12:57:52.250Z,11.13
2023-02-06T13:00:38.214Z,7.85
2023-02-06T13:03:23.014Z,7.57
2023-02-06T13:06:14.632Z,8.38
2023-02-06T13:09:01.284Z,7.90
2023-02-06T13:11:39.195Z,7.50
2023-02-06T13:14:17.800Z,7.38
2023-02-06T13:16:50.861Z,7.43
2023-02-06T13:19:46.196Z,7.78
2023-02-06T13:22:19.483Z,7.43
2023-02-06T13:24:49.142Z,7.00
2023-02-06T13:27:15.888Z,7.93
2023-02-06T13:29:46.153Z,7.60
2023-02-06T13:32:15.849Z,8.02
2023-02-06T13:34:44.887Z,7.78
2023-02-06T13:37:40.304Z,8.73
2023-02-06T13:40:30.368Z,11.10
2023-02-06T13:43:21.470Z,10.13
2023-02-06T13:45:55.689Z,10.50
2023-02-06T13:48:41.307Z,10.75
2023-02-06T13:51:26.860Z,11.38
2023-02-06T13:54:12.477Z,10.50
2023-02-06T13:56:58.309Z,10.50
2023-02-06T13:59:30.198Z,11.82
2023-02-06T14:02:03.042Z,10.65
2023-02-06T14:04:33.531Z,11.35
2023-02-06T14:07:03.353Z,10.23
2023-02-06T14:09:39.972Z,11.27
2023-02-06T14:12:39.411Z,11.50
2023-02-06T14:15:09.124Z,9.90
2023-02-06T14:17:46.577Z,10.88
2023-02-06T14:20:44.366Z,10.48
2023-02-06T14:23:17.204Z,10.85
2023-02-06T14:26:06.376Z,10.45
2023-02-06T14:28:45.577Z,10.90
2023-02-06T14:31:25.501Z,10.57
2023-02-06T14:34:33.117Z,10.60
2023-02-06T14:37:24.068Z,9.05
2023-02-06T14:40:04.514Z,9.55
2023-02-06T14:42:42.936Z,9.38
2023-02-06T14:45:38.579Z,10.63
2023-02-06T14:48:21.169Z,9.60
2023-02-06T14:50:53.324Z,10.73
2023-02-06T14:53:37.027Z,11.23
2023-02-06T14:56:07.207Z,12.15
2023-02-06T14:58:34.183Z,11.05
2023-02-06T15:01:23.990Z,10.90
2023-02-06T15:03:54.813Z,12.20
2023-02-06T15:06:34.889Z,12.10
2023-02-06T15:09:02.383Z,12.48
2023-02-06T15:11:32.766Z,11.18
2023-02-06T15:14:04.343Z,11.65
2023-02-06T15:16:33.108Z,11.85
2023-02-06T15:19:24.746Z,11.45
2023-02-06T15:22:01.710Z,11.52
2023-02-06T15:24:59.533Z,11.65
2023-02-06T15:27:35.067Z,10.73
2023-02-06T15:30:04.714Z,10.88
2023-02-06T15:32:40.498Z,10.10
2023-02-06T15:35:19.493Z,10.32
2023-02-06T15:37:46.589Z,11.05
2023-02-06T15:40:31.134Z,11.13
2023-02-06T15:42:59.182Z,10.63
2023-02-06T15:45:29.703Z,11.35
2023-02-06T15:47:57.251Z,11.40
2023-02-06T15:50:27.890Z,11.88
2023-02-06T15:52:55.776Z,11.75
2023-02-06T15:55:40.885Z,11.98
2023-02-06T15:58:07.618Z,11.32
2023-02-06T16:00:37.265Z,11.25
2023-02-06T16:03:16.363Z,12.27
2023-02-06T16:05:43.902Z,12.85
2023-02-06T16:08:20.329Z,13.98
2023-02-06T16:11:27.598Z,14.57
2023-02-06T16:13:54.710Z,13.98
2023-02-06T16:16:24.199Z,13.48
2023-02-06T16:18:52.433Z,13.93
2023-02-06T16:21:19.221Z,14.95
2023-02-06T16:23:51.786Z,13.90
2023-02-06T16:26:24.958Z,13.93
2023-02-06T16:29:09.728Z,14.45
2023-02-06T16:31:43.478Z,15.00
2023-02-06T16:34:36.897Z,15.93
2023-02-06T16:37:10.951Z,14.23
2023-02-06T16:39:40.172Z,15.43
2023-02-06T16:42:07.015Z,17.10
2023-02-06T16:44:44.291Z,14.93
2023-02-06T16:47:14.638Z,16.10
2023-02-06T16:49:41.662Z,16.02
2023-02-06T16:52:11.142Z,16.08
2023-02-06T16:54:38.692Z,16.67
2023-02-06T16:57:24.574Z,15.35
2023-02-06T16:59:51.921Z,15.88
2023-02-06T17:02:18.756Z,17.13
2023-02-06T17:04:45.863Z,17.63
2023-02-06T17:07:17.558Z,18.85
2023-02-06T17:09:45.848Z,20.42
2023-02-06T17:12:15.602Z,18.50
2023-02-06T17:14:43.026Z,18.75
2023-02-06T17:17:18.759Z,18.02
2023-02-06T17:19:46.604Z,16.45
2023-02-06T17:22:14.003Z,17.83
2023-02-06T17:24:41.645Z,17.95
2023-02-06T17:27:13.563Z,18.45
2023-02-06T17:29:40.386Z,18.50
2023-02-06T17:32:08.484Z,17.35
2023-02-06T17:34:36.290Z,17.15
2023-02-06T17:37:03.556Z,16.20
2023-02-06T17:39:30.684Z,16.60
2023-02-06T17:41:58.408Z,15.25
2023-02-06T17:44:25.395Z,15.10
2023-02-06T17:46:52.375Z,14.05
2023-02-06T17:49:19.474Z,12.82
2023-02-06T17:51:46.644Z,13.43
2023-02-06T17:54:13.939Z,15.38
2023-02-06T17:56:40.759Z,14.18
2023-02-06T17:59:08.827Z,13.73
2023-02-06T18:01:36.083Z,14.32
2023-02-06T18:04:03.842Z,14.73
2023-02-06T18:06:34.508Z,14.02
2023-02-06T18:09:01.297Z,14.43
2023-02-06T18:11:28.401Z,13.73
2023-02-06T18:13:55.902Z,14.02
2023-02-06T18:16:25.721Z,13.73
2023-02-06T18:18:53.094Z,13.77
2023-02-06T18:21:20.662Z,15.23
2023-02-06T18:23:49.188Z,14.77
2023-02-06T18:26:15.991Z,14.30
2023-02-06T18:28:42.813Z,13.68
2023-02-06T18:31:21.635Z,13.32
2023-02-06T18:33:48.412Z,13.05
2023-02-06T18:36:15.374Z,14.02
2023-02-06T18:38:42.706Z,13.55
2023-02-06T18:41:29.656Z,14.35
2023-02-06T18:43:59.399Z,13.50
2023-02-06T18:46:26.190Z,14.13
2023-02-06T18:48:54.970Z,14.65
2023-02-06T18:51:21.794Z,14.40
2023-02-06T18:53:48.698Z,14.65
2023-02-06T18:56:15.696Z,14.50
2023-02-06T18:58:42.605Z,15.55
2023-02-06T19:01:23.451Z,14.50
2023-02-06T19:03:52.214Z,16.40
2023-02-06T19:06:25.296Z,16.20
2023-02-06T19:08:52.112Z,16.33
2023-02-06T19:11:19.115Z,16.02
2023-02-06T19:13:46.099Z,14.98
2023-02-06T19:16:18.865Z,14.65
2023-02-06T19:18:48.067Z,17.75
2023-02-06T19:21:18.013Z,16.90
2023-02-06T19:23:47.333Z,17.60
2023-02-06T19:26:16.831Z,17.40
2023-02-06T19:28:44.771Z,17.10
2023-02-06T19:31:13.749Z,17.70
2023-02-06T19:33:41.813Z,17.02
2023-02-06T19:36:14.326Z,17.30
2023-02-06T19:38:42.035Z,18.02
2023-02-06T19:41:14.523Z,18.10
2023-02-06T19:43:43.526Z,16.92
2023-02-06T19:46:13.476Z,17.00
2023-02-06T19:48:46.732Z,16.25
2023-02-06T19:53:48.061Z,17.67
2023-02-06T19:58:45.821Z,17.92
2023-02-06T20:01:15.092Z,18.35
2023-02-06T20:03:42.905Z,16.48
2023-02-06T20:06:12.975Z,17.05
2023-02-06T20:08:42.921Z,17.90
2023-02-06T20:11:15.914Z,18.60
2023-02-06T20:13:43.855Z,18.05
2023-02-06T20:16:24.740Z,16.63
2023-02-06T20:18:52.247Z,18.25
2023-02-06T20:21:29.529Z,17.17
2023-02-06T20:23:59.221Z,17.13
2023-02-06T20:26:31.850Z,17.17
2023-02-06T20:28:59.523Z,16.50
2023-02-06T20:31:27.716Z,18.10
2023-02-06T20:33:55.898Z,18.35
2023-02-06T20:36:26.823Z,18.27
2023-02-06T20:38:58.811Z,18.25
2023-02-06T20:41:28.741Z,18.38
2023-02-06T20:43:58.232Z,18.67
2023-02-06T20:46:27.367Z,19.70
2023-02-06T20:49:02.735Z,19.70
2023-02-06T20:51:30.035Z,18.23
2023-02-06T20:53:57.107Z,17.17
2023-02-06T20:56:27.347Z,18.73
2023-02-06T20:58:54.622Z,17.95
2023-02-06T21:01:24.421Z,18.17
2023-02-06T21:03:54.577Z,18.73
2023-02-06T21:06:21.510Z,18.40
2023-02-06T21:08:50.354Z,18.55
2023-02-06T21:11:17.830Z,17.45
2023-02-06T21:13:44.644Z,18.60
2023-02-06T21:16:13.574Z,19.98
2023-02-06T21:18:42.614Z,18.80
2023-02-06T21:21:12.981Z,18.73
2023-02-06T21:23:42.401Z,19.45
2023-02-06T21:26:10.778Z,21.42
2023-02-06T21:28:38.241Z,20.17
2023-02-06T21:31:13.302Z,21.08
2023-02-06T21:33:40.162Z,20.52
2023-02-06T21:36:08.221Z,19.02
2023-02-06T21:38:36.353Z,19.98
2023-02-06T21:41:07.914Z,19.40
2023-02-06T21:43:35.047Z,20.58
2023-02-06T21:46:02.242Z,20.85
2023-02-06T21:48:29.376Z,23.00
2023-02-06T21:50:57.613Z,22.42
2023-02-06T21:53:25.585Z,21.05
2023-02-06T21:55:52.460Z,19.77
2023-02-06T21:58:19.798Z,20.90
2023-02-06T22:00:47.643Z,18.75
2023-02-06T22:03:14.942Z,19.50
2023-02-06T22:05:41.907Z,20.88
2023-02-06T22:08:08.675Z,19.95
2023-02-06T22:10:37.424Z,18.75
2023-02-06T22:13:06.071Z,19.08
2023-02-06T22:15:33.703Z,19.52
2023-02-06T22:18:00.876Z,18.80
2023-02-06T22:20:28.069Z,20.20
2023-02-06T22:22:55.283Z,18.17
2023-02-06T22:25:22.514Z,18.48
2023-02-06T22:27:49.429Z,19.92
2023-02-06T22:30:16.420Z,20.00
2023-02-06T22:32:43.182Z,20.58
2023-02-06T22:35:10.014Z,18.80
2023-02-06T22:37:36.832Z,18.33
2023-02-06T22:40:03.712Z,18.25
2023-02-06T22:42:30.621Z,18.27
2023-02-06T22:44:57.465Z,20.33
2023-02-06T22:47:24.227Z,19.17
2023-02-06T22:49:52.721Z,20.67
2023-02-06T22:52:38.301Z,19.65
2023-02-06T22:55:05.896Z,20.73
2023-02-06T22:57:35.322Z,20.65
2023-02-06T23:00:02.104Z,19.20
2023-02-06T23:02:50.732Z,19.88
2023-02-06T23:05:17.546Z,20.70
2023-02-06T23:07:44.712Z,21.27
2023-02-06T23:10:11.660Z,21.20
2023-02-06T23:12:39.339Z,20.40
2023-02-06T23:15:06.389Z,20.45
2023-02-06T23:17:33.511Z,19.65
2023-02-06T23:20:00.353Z,18.98
2023-02-06T23:22:28.377Z,18.35
2023-02-06T23:24:55.254Z,18.38
2023-02-06T23:27:22.213Z,19.48
2023-02-06T23:29:48.985Z,18.60
2023-02-06T23:32:15.809Z,17.25
2023-02-06T23:34:42.631Z,17.02
2023-02-06T23:37:09.430Z,16.48
2023-02-06T23:39:36.213Z,16.98
2023-02-06T23:42:03.049Z,17.27
2023-02-06T23:44:29.879Z,16.27
2023-02-06T23:46:57.203Z,18.42
2023-02-06T23:49:23.957Z,17.33
2023-02-06T23:51:51.115Z,18.88
2023-02-06T23:54:17.910Z,18.50
2023-02-06T23:56:44.797Z,19.60
2023-02-06T23:59:13.107Z,18.48
